sensor_id;sensor_type;location;lat;lon;timestamp;P1;durP1;ratioP1;P2;durP2;ratioP2
56455;SDS011;42354;53.218;6.564;2023-08-01T00:00:00;20.33;;;5.30;;
56455;SDS011;42354;53.218;6.564;2023-08-01T00:02:28;24.85;;;5.80;;
56455;SDS011;42354;53.218;6.564;2023-08-01T00:04:53;22.98;;;6.72;;
56455;SDS011;42354;53.218;6.564;2023-08-01T00:07:19;20.98;;;5.50;;
56455;SDS011;42354;53.218;6.564;2023-08-01T00:09:44;17.48;;;4.93;;
56455;SDS011;42354;53.218;6.564;2023-08-01T00:12:09;18.20;;;5.25;;
56455;SDS011;42354;53.218;6.564;2023-08-01T00:14:35;17.73;;;4.88;;
56455;SDS011;42354;53.218;6.564;2023-08-01T00:17:01;17.85;;;5.10;;
56455;SDS011;42354;53.218;6.564;2023-08-01T00:19:27;15.82;;;4.93;;
56455;SDS011;42354;53.218;6.564;2023-08-01T00:21:53;18.85;;;5.85;;
56455;SDS011;42354;53.218;6.564;2023-08-01T00:24:19;20.73;;;5.35;;
56455;SDS011;42354;53.218;6.564;2023-08-01T00:26:44;15.45;;;4.55;;
56455;SDS011;42354;53.218;6.564;2023-08-01T00:29:09;20.67;;;5.30;;
56455;SDS011;42354;53.218;6.564;2023-08-01T00:31:35;13.75;;;4.55;;
56455;SDS011;42354;53.218;6.564;2023-08-01T00:34:00;19.13;;;5.43;;
56455;SDS011;42354;53.218;6.564;2023-08-01T00:36:25;17.25;;;4.80;;
56455;SDS011;42354;53.218;6.564;2023-08-01T00:38:51;13.93;;;5.00;;
56455;SDS011;42354;53.218;6.564;2023-08-01T00:41:16;15.73;;;5.50;;
56455;SDS011;42354;53.218;6.564;2023-08-01T00:43:41;15.00;;;5.25;;
56455;SDS011;42354;53.218;6.564;2023-08-01T00:46:07;20.80;;;4.75;;
56455;SDS011;42354;53.218;6.564;2023-08-01T00:48:33;15.13;;;4.88;;
56455;SDS011;42354;53.218;6.564;2023-08-01T00:50:59;17.60;;;4.72;;
56455;SDS011;42354;53.218;6.564;2023-08-01T00:53:27;16.77;;;4.80;;
56455;SDS011;42354;53.218;6.564;2023-08-01T00:55:53;16.08;;;5.05;;
56455;SDS011;42354;53.218;6.564;2023-08-01T00:58:20;18.85;;;5.20;;
56455;SDS011;42354;53.218;6.564;2023-08-01T01:00:45;15.25;;;4.47;;
56455;SDS011;42354;53.218;6.564;2023-08-01T01:03:11;16.27;;;4.93;;
56455;SDS011;42354;53.218;6.564;2023-08-01T01:05:38;17.15;;;4.50;;
56455;SDS011;42354;53.218;6.564;2023-08-01T01:08:05;17.58;;;5.35;;
56455;SDS011;42354;53.218;6.564;2023-08-01T01:10:31;17.25;;;4.82;;
56455;SDS011;42354;53.218;6.564;2023-08-01T01:12:56;16.27;;;4.95;;
56455;SDS011;42354;53.218;6.564;2023-08-01T01:15:22;14.98;;;4.90;;
56455;SDS011;42354;53.218;6.564;2023-08-01T01:17:47;14.25;;;4.85;;
56455;SDS011;42354;53.218;6.564;2023-08-01T01:20:13;17.33;;;5.38;;
56455;SDS011;42354;53.218;6.564;2023-08-01T01:22:38;16.77;;;5.10;;
56455;SDS011;42354;53.218;6.564;2023-08-01T01:25:05;25.85;;;5.28;;
56455;SDS011;42354;53.218;6.564;2023-08-01T01:27:33;11.65;;;5.00;;
56455;SDS011;42354;53.218;6.564;2023-08-01T01:30:01;14.07;;;5.05;;
56455;SDS011;42354;53.218;6.564;2023-08-01T01:32:28;17.67;;;5.63;;
56455;SDS011;42354;53.218;6.564;2023-08-01T01:34:54;14.50;;;5.30;;
56455;SDS011;42354;53.218;6.564;2023-08-01T01:37:20;16.33;;;5.45;;
56455;SDS011;42354;53.218;6.564;2023-08-01T01:39:45;19.27;;;5.88;;
56455;SDS011;42354;53.218;6.564;2023-08-01T01:42:10;13.13;;;5.07;;
56455;SDS011;42354;53.218;6.564;2023-08-01T01:44:38;19.95;;;5.85;;
56455;SDS011;42354;53.218;6.564;2023-08-01T01:47:03;17.73;;;5.70;;
56455;SDS011;42354;53.218;6.564;2023-08-01T01:49:29;16.08;;;5.47;;
56455;SDS011;42354;53.218;6.564;2023-08-01T01:51:54;14.38;;;5.35;;
56455;SDS011;42354;53.218;6.564;2023-08-01T01:54:20;14.38;;;5.32;;
56455;SDS011;42354;53.218;6.564;2023-08-01T01:56:46;15.18;;;5.60;;
56455;SDS011;42354;53.218;6.564;2023-08-01T01:59:12;23.95;;;5.75;;
56455;SDS011;42354;53.218;6.564;2023-08-01T02:01:37;18.05;;;5.32;;
56455;SDS011;42354;53.218;6.564;2023-08-01T02:04:02;20.00;;;6.05;;
56455;SDS011;42354;53.218;6.564;2023-08-01T02:06:28;14.50;;;6.30;;
56455;SDS011;42354;53.218;6.564;2023-08-01T02:08:53;17.10;;;6.45;;
56455;SDS011;42354;53.218;6.564;2023-08-01T02:11:19;14.02;;;5.22;;
56455;SDS011;42354;53.218;6.564;2023-08-01T02:13:44;14.43;;;5.47;;
56455;SDS011;42354;53.218;6.564;2023-08-01T02:16:10;15.63;;;5.47;;
56455;SDS011;42354;53.218;6.564;2023-08-01T02:18:35;15.00;;;5.50;;
56455;SDS011;42354;53.218;6.564;2023-08-01T02:21:01;20.05;;;5.20;;
56455;SDS011;42354;53.218;6.564;2023-08-01T02:23:27;13.00;;;5.30;;
56455;SDS011;42354;53.218;6.564;2023-08-01T02:25:54;16.35;;;5.10;;
56455;SDS011;42354;53.218;6.564;2023-08-01T02:28:19;15.60;;;5.32;;
56455;SDS011;42354;53.218;6.564;2023-08-01T02:30:45;17.60;;;5.47;;
56455;SDS011;42354;53.218;6.564;2023-08-01T02:33:10;20.30;;;5.57;;
56455;SDS011;42354;53.218;6.564;2023-08-01T02:35:36;17.42;;;5.18;;
56455;SDS011;42354;53.218;6.564;2023-08-01T02:38:02;19.40;;;5.43;;
56455;SDS011;42354;53.218;6.564;2023-08-01T02:40:28;11.43;;;4.82;;
56455;SDS011;42354;53.218;6.564;2023-08-01T02:42:53;22.02;;;5.07;;
56455;SDS011;42354;53.218;6.564;2023-08-01T02:45:19;14.98;;;4.55;;
56455;SDS011;42354;53.218;6.564;2023-08-01T02:47:44;13.07;;;4.60;;
56455;SDS011;42354;53.218;6.564;2023-08-01T02:50:10;14.95;;;4.97;;
56455;SDS011;42354;53.218;6.564;2023-08-01T02:52:35;13.57;;;5.20;;
56455;SDS011;42354;53.218;6.564;2023-08-01T02:55:01;14.25;;;5.15;;
56455;SDS011;42354;53.218;6.564;2023-08-01T02:57:26;18.35;;;5.32;;
56455;SDS011;42354;53.218;6.564;2023-08-01T02:59:51;12.85;;;5.15;;
56455;SDS011;42354;53.218;6.564;2023-08-01T03:02:18;17.23;;;5.45;;
56455;SDS011;42354;53.218;6.564;2023-08-01T03:04:44;15.60;;;5.40;;
56455;SDS011;42354;53.218;6.564;2023-08-01T03:07:09;12.25;;;5.18;;
56455;SDS011;42354;53.218;6.564;2023-08-01T03:09:35;16.52;;;5.07;;
56455;SDS011;42354;53.218;6.564;2023-08-01T03:12:00;12.95;;;5.00;;
56455;SDS011;42354;53.218;6.564;2023-08-01T03:14:25;18.23;;;6.15;;
56455;SDS011;42354;53.218;6.564;2023-08-01T03:16:51;16.10;;;5.55;;
56455;SDS011;42354;53.218;6.564;2023-08-01T03:19:16;17.75;;;5.65;;
56455;SDS011;42354;53.218;6.564;2023-08-01T03:21:42;16.98;;;6.03;;
56455;SDS011;42354;53.218;6.564;2023-08-01T03:24:07;15.25;;;5.90;;
56455;SDS011;42354;53.218;6.564;2023-08-01T03:26:34;22.15;;;6.55;;
56455;SDS011;42354;53.218;6.564;2023-08-01T03:29:00;18.23;;;6.82;;
56455;SDS011;42354;53.218;6.564;2023-08-01T03:31:25;21.10;;;7.47;;
56455;SDS011;42354;53.218;6.564;2023-08-01T03:33:51;20.67;;;6.68;;
56455;SDS011;42354;53.218;6.564;2023-08-01T03:36:16;23.42;;;7.70;;
56455;SDS011;42354;53.218;6.564;2023-08-01T03:38:42;22.02;;;6.60;;
56455;SDS011;42354;53.218;6.564;2023-08-01T03:41:08;20.75;;;7.65;;
56455;SDS011;42354;53.218;6.564;2023-08-01T03:43:33;19.98;;;6.68;;
56455;SDS011;42354;53.218;6.564;2023-08-01T03:45:59;16.90;;;7.22;;
56455;SDS011;42354;53.218;6.564;2023-08-01T03:48:24;19.70;;;6.78;;
56455;SDS011;42354;53.218;6.564;2023-08-01T03:50:50;21.33;;;7.20;;
56455;SDS011;42354;53.218;6.564;2023-08-01T03:53:15;14.40;;;6.93;;
56455;SDS011;42354;53.218;6.564;2023-08-01T03:55:41;19.48;;;7.13;;
56455;SDS011;42354;53.218;6.564;2023-08-01T03:58:07;15.15;;;6.35;;
56455;SDS011;42354;53.218;6.564;2023-08-01T04:00:32;19.42;;;5.53;;
56455;SDS011;42354;53.218;6.564;2023-08-01T04:02:59;22.10;;;5.60;;
56455;SDS011;42354;53.218;6.564;2023-08-01T04:05:24;16.50;;;5.13;;
56455;SDS011;42354;53.218;6.564;2023-08-01T04:07:50;15.05;;;4.97;;
56455;SDS011;42354;53.218;6.564;2023-08-01T04:10:15;16.88;;;5.10;;
56455;SDS011;42354;53.218;6.564;2023-08-01T04:12:41;15.05;;;4.28;;
56455;SDS011;42354;53.218;6.564;2023-08-01T04:15:08;10.80;;;3.55;;
56455;SDS011;42354;53.218;6.564;2023-08-01T04:17:34;15.13;;;4.07;;
56455;SDS011;42354;53.218;6.564;2023-08-01T04:19:59;13.63;;;3.83;;
56455;SDS011;42354;53.218;6.564;2023-08-01T04:22:24;13.98;;;3.63;;
56455;SDS011;42354;53.218;6.564;2023-08-01T04:24:50;15.80;;;4.03;;
56455;SDS011;42354;53.218;6.564;2023-08-01T04:27:15;18.63;;;3.65;;
56455;SDS011;42354;53.218;6.564;2023-08-01T04:29:41;10.93;;;3.25;;
56455;SDS011;42354;53.218;6.564;2023-08-01T04:32:06;14.25;;;3.25;;
56455;SDS011;42354;53.218;6.564;2023-08-01T04:34:32;13.40;;;3.42;;
56455;SDS011;42354;53.218;6.564;2023-08-01T04:36:58;11.55;;;2.95;;
56455;SDS011;42354;53.218;6.564;2023-08-01T04:39:23;14.60;;;3.35;;
56455;SDS011;42354;53.218;6.564;2023-08-01T04:41:48;8.60;;;3.40;;
56455;SDS011;42354;53.218;6.564;2023-08-01T04:44:15;11.52;;;3.28;;
56455;SDS011;42354;53.218;6.564;2023-08-01T04:46:40;10.88;;;2.45;;
56455;SDS011;42354;53.218;6.564;2023-08-01T04:49:07;8.85;;;3.03;;
56455;SDS011;42354;53.218;6.564;2023-08-01T04:51:32;9.38;;;2.72;;
56455;SDS011;42354;53.218;6.564;2023-08-01T04:53:58;10.73;;;2.60;;
56455;SDS011;42354;53.218;6.564;2023-08-01T04:56:23;10.82;;;2.53;;
56455;SDS011;42354;53.218;6.564;2023-08-01T04:58:49;6.97;;;2.30;;
56455;SDS011;42354;53.218;6.564;2023-08-01T05:01:14;12.07;;;2.33;;
56455;SDS011;42354;53.218;6.564;2023-08-01T05:03:39;11.15;;;2.60;;
56455;SDS011;42354;53.218;6.564;2023-08-01T05:06:05;19.50;;;3.58;;
56455;SDS011;42354;53.218;6.564;2023-08-01T05:08:30;13.77;;;2.15;;
56455;SDS011;42354;53.218;6.564;2023-08-01T05:10:55;13.13;;;2.30;;
56455;SDS011;42354;53.218;6.564;2023-08-01T05:13:21;15.48;;;2.58;;
56455;SDS011;42354;53.218;6.564;2023-08-01T05:15:46;15.93;;;2.67;;
56455;SDS011;42354;53.218;6.564;2023-08-01T05:18:13;17.27;;;2.85;;
56455;SDS011;42354;53.218;6.564;2023-08-01T05:20:39;9.50;;;2.20;;
56455;SDS011;42354;53.218;6.564;2023-08-01T05:23:04;11.00;;;2.13;;
56455;SDS011;42354;53.218;6.564;2023-08-01T05:25:30;12.05;;;2.70;;
56455;SDS011;42354;53.218;6.564;2023-08-01T05:27:55;10.48;;;2.33;;
56455;SDS011;42354;53.218;6.564;2023-08-01T05:30:21;11.52;;;2.10;;
56455;SDS011;42354;53.218;6.564;2023-08-01T05:32:46;10.35;;;2.05;;
56455;SDS011;42354;53.218;6.564;2023-08-01T05:35:12;8.15;;;1.90;;
56455;SDS011;42354;53.218;6.564;2023-08-01T05:37:37;12.00;;;2.08;;
56455;SDS011;42354;53.218;6.564;2023-08-01T05:40:03;7.38;;;2.00;;
56455;SDS011;42354;53.218;6.564;2023-08-01T05:42:29;8.80;;;2.40;;
56455;SDS011;42354;53.218;6.564;2023-08-01T05:44:54;10.32;;;2.20;;
56455;SDS011;42354;53.218;6.564;2023-08-01T05:47:20;10.45;;;1.95;;
56455;SDS011;42354;53.218;6.564;2023-08-01T05:49:47;7.93;;;1.95;;
56455;SDS011;42354;53.218;6.564;2023-08-01T05:52:13;11.70;;;2.55;;
56455;SDS011;42354;53.218;6.564;2023-08-01T05:54:38;8.10;;;2.30;;
56455;SDS011;42354;53.218;6.564;2023-08-01T05:57:04;10.80;;;2.63;;
56455;SDS011;42354;53.218;6.564;2023-08-01T05:59:30;7.90;;;2.47;;
56455;SDS011;42354;53.218;6.564;2023-08-01T06:01:55;7.07;;;2.33;;
56455;SDS011;42354;53.218;6.564;2023-08-01T06:04:21;10.10;;;2.53;;
56455;SDS011;42354;53.218;6.564;2023-08-01T06:06:46;7.95;;;2.00;;
56455;SDS011;42354;53.218;6.564;2023-08-01T06:09:12;10.75;;;2.58;;
56455;SDS011;42354;53.218;6.564;2023-08-01T06:11:37;8.27;;;2.67;;
56455;SDS011;42354;53.218;6.564;2023-08-01T06:14:03;9.95;;;2.70;;
56455;SDS011;42354;53.218;6.564;2023-08-01T06:16:28;4.30;;;1.65;;
56455;SDS011;42354;53.218;6.564;2023-08-01T06:18:53;3.65;;;2.15;;
56455;SDS011;42354;53.218;6.564;2023-08-01T06:21:19;7.13;;;2.40;;
56455;SDS011;42354;53.218;6.564;2023-08-01T06:23:44;7.28;;;2.90;;
56455;SDS011;42354;53.218;6.564;2023-08-01T06:26:10;8.57;;;2.22;;
56455;SDS011;42354;53.218;6.564;2023-08-01T06:28:35;5.05;;;2.22;;
56455;SDS011;42354;53.218;6.564;2023-08-01T06:31:01;6.43;;;2.05;;
56455;SDS011;42354;53.218;6.564;2023-08-01T06:33:27;8.23;;;2.03;;
56455;SDS011;42354;53.218;6.564;2023-08-01T06:35:52;9.68;;;2.28;;
56455;SDS011;42354;53.218;6.564;2023-08-01T06:38:18;6.78;;;1.85;;
56455;SDS011;42354;53.218;6.564;2023-08-01T06:40:43;6.05;;;2.35;;
56455;SDS011;42354;53.218;6.564;2023-08-01T06:43:08;7.55;;;1.92;;
56455;SDS011;42354;53.218;6.564;2023-08-01T06:45:34;5.90;;;1.52;;
56455;SDS011;42354;53.218;6.564;2023-08-01T06:47:59;9.18;;;1.77;;
56455;SDS011;42354;53.218;6.564;2023-08-01T06:50:25;10.57;;;2.45;;
56455;SDS011;42354;53.218;6.564;2023-08-01T06:52:50;7.25;;;1.92;;
56455;SDS011;42354;53.218;6.564;2023-08-01T06:55:16;3.85;;;1.63;;
56455;SDS011;42354;53.218;6.564;2023-08-01T06:57:41;3.33;;;1.50;;
56455;SDS011;42354;53.218;6.564;2023-08-01T07:00:06;4.40;;;1.58;;
56455;SDS011;42354;53.218;6.564;2023-08-01T07:02:33;6.40;;;2.20;;
56455;SDS011;42354;53.218;6.564;2023-08-01T07:04:58;4.03;;;1.40;;
56455;SDS011;42354;53.218;6.564;2023-08-01T07:07:23;6.45;;;1.60;;
56455;SDS011;42354;53.218;6.564;2023-08-01T07:09:49;7.35;;;1.60;;
56455;SDS011;42354;53.218;6.564;2023-08-01T07:12:14;7.20;;;2.05;;
56455;SDS011;42354;53.218;6.564;2023-08-01T07:14:39;7.25;;;1.60;;
56455;SDS011;42354;53.218;6.564;2023-08-01T07:17:05;3.90;;;1.70;;
56455;SDS011;42354;53.218;6.564;2023-08-01T07:19:30;6.70;;;1.40;;
56455;SDS011;42354;53.218;6.564;2023-08-01T07:21:56;6.03;;;1.48;;
56455;SDS011;42354;53.218;6.564;2023-08-01T07:24:21;6.78;;;1.27;;
56455;SDS011;42354;53.218;6.564;2023-08-01T07:26:46;7.07;;;1.35;;
56455;SDS011;42354;53.218;6.564;2023-08-01T07:29:12;9.35;;;1.50;;
56455;SDS011;42354;53.218;6.564;2023-08-01T07:31:40;7.88;;;1.30;;
56455;SDS011;42354;53.218;6.564;2023-08-01T07:34:07;7.47;;;1.98;;
56455;SDS011;42354;53.218;6.564;2023-08-01T07:36:32;4.63;;;0.80;;
56455;SDS011;42354;53.218;6.564;2023-08-01T07:38:58;5.95;;;1.17;;
56455;SDS011;42354;53.218;6.564;2023-08-01T07:41:23;7.13;;;1.02;;
56455;SDS011;42354;53.218;6.564;2023-08-01T07:43:49;5.47;;;1.10;;
56455;SDS011;42354;53.218;6.564;2023-08-01T07:46:14;7.93;;;1.17;;
56455;SDS011;42354;53.218;6.564;2023-08-01T07:48:39;6.53;;;1.10;;
56455;SDS011;42354;53.218;6.564;2023-08-01T07:51:05;7.75;;;1.00;;
56455;SDS011;42354;53.218;6.564;2023-08-01T07:53:32;9.07;;;1.08;;
56455;SDS011;42354;53.218;6.564;2023-08-01T07:56:00;11.25;;;1.38;;
56455;SDS011;42354;53.218;6.564;2023-08-01T07:58:27;6.85;;;1.10;;
56455;SDS011;42354;53.218;6.564;2023-08-01T08:00:53;6.50;;;1.23;;
56455;SDS011;42354;53.218;6.564;2023-08-01T08:03:18;4.43;;;0.90;;
56455;SDS011;42354;53.218;6.564;2023-08-01T08:05:47;4.20;;;0.73;;
56455;SDS011;42354;53.218;6.564;2023-08-01T08:08:12;5.28;;;1.00;;
56455;SDS011;42354;53.218;6.564;2023-08-01T08:10:38;4.97;;;0.80;;
56455;SDS011;42354;53.218;6.564;2023-08-01T08:13:03;5.72;;;0.85;;
56455;SDS011;42354;53.218;6.564;2023-08-01T08:15:29;3.75;;;0.77;;
56455;SDS011;42354;53.218;6.564;2023-08-01T08:17:58;6.53;;;1.23;;
56455;SDS011;42354;53.218;6.564;2023-08-01T08:20:24;6.07;;;0.90;;
56455;SDS011;42354;53.218;6.564;2023-08-01T08:22:49;4.82;;;0.90;;
56455;SDS011;42354;53.218;6.564;2023-08-01T08:25:15;5.85;;;1.40;;
56455;SDS011;42354;53.218;6.564;2023-08-01T08:27:40;5.75;;;1.40;;
56455;SDS011;42354;53.218;6.564;2023-08-01T08:30:06;5.07;;;1.52;;
56455;SDS011;42354;53.218;6.564;2023-08-01T08:32:31;7.88;;;1.20;;
56455;SDS011;42354;53.218;6.564;2023-08-01T08:34:57;6.82;;;1.40;;
56455;SDS011;42354;53.218;6.564;2023-08-01T08:37:22;6.15;;;1.10;;
56455;SDS011;42354;53.218;6.564;2023-08-01T08:39:48;3.95;;;1.30;;
56455;SDS011;42354;53.218;6.564;2023-08-01T08:42:13;10.25;;;1.30;;
56455;SDS011;42354;53.218;6.564;2023-08-01T08:44:42;5.00;;;1.23;;
56455;SDS011;42354;53.218;6.564;2023-08-01T08:47:10;5.28;;;1.33;;
56455;SDS011;42354;53.218;6.564;2023-08-01T08:49:38;5.85;;;1.33;;
56455;SDS011;42354;53.218;6.564;2023-08-01T08:52:05;8.43;;;2.05;;
56455;SDS011;42354;53.218;6.564;2023-08-01T08:54:31;6.05;;;1.50;;
56455;SDS011;42354;53.218;6.564;2023-08-01T08:56:58;8.32;;;1.70;;
56455;SDS011;42354;53.218;6.564;2023-08-01T08:59:24;6.47;;;1.90;;
56455;SDS011;42354;53.218;6.564;2023-08-01T09:01:50;5.18;;;1.63;;
56455;SDS011;42354;53.218;6.564;2023-08-01T09:04:15;7.18;;;1.58;;
56455;SDS011;42354;53.218;6.564;2023-08-01T09:06:44;11.10;;;1.60;;
56455;SDS011;42354;53.218;6.564;2023-08-01T09:09:14;7.82;;;1.85;;
56455;SDS011;42354;53.218;6.564;2023-08-01T09:11:46;7.57;;;1.60;;
56455;SDS011;42354;53.218;6.564;2023-08-01T09:14:13;4.93;;;1.40;;
56455;SDS011;42354;53.218;6.564;2023-08-01T09:16:39;5.32;;;1.20;;
56455;SDS011;42354;53.218;6.564;2023-08-01T09:19:06;6.47;;;1.30;;
56455;SDS011;42354;53.218;6.564;2023-08-01T09:21:36;5.05;;;1.63;;
56455;SDS011;42354;53.218;6.564;2023-08-01T09:26:36;6.20;;;1.40;;
56455;SDS011;42354;53.218;6.564;2023-08-01T09:29:02;7.25;;;1.30;;
56455;SDS011;42354;53.218;6.564;2023-08-01T09:31:28;6.47;;;1.23;;
56455;SDS011;42354;53.218;6.564;2023-08-01T09:33:55;6.60;;;1.23;;
56455;SDS011;42354;53.218;6.564;2023-08-01T09:36:23;5.22;;;1.00;;
56455;SDS011;42354;53.218;6.564;2023-08-01T09:38:50;6.47;;;1.20;;
56455;SDS011;42354;53.218;6.564;2023-08-01T09:41:18;9.18;;;1.58;;
56455;SDS011;42354;53.218;6.564;2023-08-01T09:43:45;9.00;;;1.23;;
56455;SDS011;42354;53.218;6.564;2023-08-01T09:46:12;5.55;;;0.93;;
56455;SDS011;42354;53.218;6.564;2023-08-01T09:48:38;4.50;;;0.90;;
56455;SDS011;42354;53.218;6.564;2023-08-01T09:51:08;4.68;;;1.40;;
56455;SDS011;42354;53.218;6.564;2023-08-01T09:56:18;5.45;;;1.17;;
56455;SDS011;42354;53.218;6.564;2023-08-01T09:58:48;5.45;;;1.13;;
56455;SDS011;42354;53.218;6.564;2023-08-01T10:01:14;4.63;;;1.20;;
56455;SDS011;42354;53.218;6.564;2023-08-01T10:03:44;8.23;;;1.45;;
56455;SDS011;42354;53.218;6.564;2023-08-01T10:06:14;6.10;;;1.20;;
56455;SDS011;42354;53.218;6.564;2023-08-01T10:11:12;3.40;;;1.20;;
56455;SDS011;42354;53.218;6.564;2023-08-01T10:13:41;4.35;;;1.27;;
56455;SDS011;42354;53.218;6.564;2023-08-01T10:16:07;8.15;;;1.10;;
56455;SDS011;42354;53.218;6.564;2023-08-01T10:18:33;3.80;;;1.20;;
56455;SDS011;42354;53.218;6.564;2023-08-01T10:21:02;7.03;;;1.23;;
56455;SDS011;42354;53.218;6.564;2023-08-01T10:23:29;5.70;;;1.52;;
56455;SDS011;42354;53.218;6.564;2023-08-01T10:25:57;4.15;;;1.27;;
56455;SDS011;42354;53.218;6.564;2023-08-01T10:28:31;6.30;;;1.30;;
56455;SDS011;42354;53.218;6.564;2023-08-01T10:31:11;5.93;;;1.67;;
56455;SDS011;42354;53.218;6.564;2023-08-01T10:33:40;7.18;;;1.50;;
56455;SDS011;42354;53.218;6.564;2023-08-01T10:36:17;9.10;;;1.90;;
56455;SDS011;42354;53.218;6.564;2023-08-01T10:38:56;6.78;;;1.42;;
56455;SDS011;42354;53.218;6.564;2023-08-01T10:44:05;12.13;;;2.17;;
56455;SDS011;42354;53.218;6.564;2023-08-01T10:47:11;7.93;;;2.10;;
56455;SDS011;42354;53.218;6.564;2023-08-01T10:52:24;11.23;;;2.10;;
56455;SDS011;42354;53.218;6.564;2023-08-01T10:54:58;5.18;;;1.23;;
56455;SDS011;42354;53.218;6.564;2023-08-01T10:57:24;10.27;;;1.63;;
56455;SDS011;42354;53.218;6.564;2023-08-01T10:59:50;6.40;;;1.65;;
56455;SDS011;42354;53.218;6.564;2023-08-01T11:02:22;6.00;;;1.60;;
56455;SDS011;42354;53.218;6.564;2023-08-01T11:04:59;8.20;;;1.50;;
56455;SDS011;42354;53.218;6.564;2023-08-01T11:07:25;5.07;;;1.50;;
56455;SDS011;42354;53.218;6.564;2023-08-01T11:10:02;5.78;;;1.17;;
56455;SDS011;42354;53.218;6.564;2023-08-01T11:12:28;6.72;;;1.25;;
56455;SDS011;42354;53.218;6.564;2023-08-01T11:14:58;6.85;;;1.70;;
56455;SDS011;42354;53.218;6.564;2023-08-01T11:17:25;8.65;;;1.17;;
56455;SDS011;42354;53.218;6.564;2023-08-01T11:19:51;5.22;;;0.98;;
56455;SDS011;42354;53.218;6.564;2023-08-01T11:22:16;9.75;;;1.67;;
56455;SDS011;42354;53.218;6.564;2023-08-01T11:24:44;9.05;;;1.45;;
56455;SDS011;42354;53.218;6.564;2023-08-01T11:27:14;6.05;;;1.10;;
56455;SDS011;42354;53.218;6.564;2023-08-01T11:29:40;6.18;;;1.52;;
56455;SDS011;42354;53.218;6.564;2023-08-01T11:32:06;7.35;;;0.98;;
56455;SDS011;42354;53.218;6.564;2023-08-01T11:34:38;7.28;;;0.88;;
56455;SDS011;42354;53.218;6.564;2023-08-01T11:37:06;7.50;;;1.00;;
56455;SDS011;42354;53.218;6.564;2023-08-01T11:39:32;7.20;;;1.17;;
56455;SDS011;42354;53.218;6.564;2023-08-01T11:41:57;7.28;;;1.30;;
56455;SDS011;42354;53.218;6.564;2023-08-01T11:44:23;6.45;;;1.20;;
56455;SDS011;42354;53.218;6.564;2023-08-01T11:46:49;4.38;;;1.00;;
56455;SDS011;42354;53.218;6.564;2023-08-01T11:49:14;2.45;;;1.00;;
56455;SDS011;42354;53.218;6.564;2023-08-01T11:51:40;6.47;;;1.30;;
56455;SDS011;42354;53.218;6.564;2023-08-01T11:54:07;4.30;;;0.93;;
56455;SDS011;42354;53.218;6.564;2023-08-01T11:56:34;5.32;;;0.90;;
56455;SDS011;42354;53.218;6.564;2023-08-01T11:59:06;5.88;;;0.98;;
56455;SDS011;42354;53.218;6.564;2023-08-01T12:01:37;5.70;;;0.90;;
56455;SDS011;42354;53.218;6.564;2023-08-01T12:04:03;3.10;;;0.70;;
56455;SDS011;42354;53.218;6.564;2023-08-01T12:06:31;4.97;;;1.10;;
56455;SDS011;42354;53.218;6.564;2023-08-01T12:09:05;3.20;;;0.88;;
56455;SDS011;42354;53.218;6.564;2023-08-01T12:11:33;3.65;;;1.00;;
56455;SDS011;42354;53.218;6.564;2023-08-01T12:14:02;5.38;;;1.05;;
56455;SDS011;42354;53.218;6.564;2023-08-01T12:16:46;8.20;;;1.02;;
56455;SDS011;42354;53.218;6.564;2023-08-01T12:19:19;7.25;;;1.55;;
56455;SDS011;42354;53.218;6.564;2023-08-01T12:21:46;6.35;;;1.02;;
56455;SDS011;42354;53.218;6.564;2023-08-01T12:24:12;4.72;;;1.17;;
56455;SDS011;42354;53.218;6.564;2023-08-01T12:26:37;8.40;;;1.60;;
56455;SDS011;42354;53.218;6.564;2023-08-01T12:29:03;7.57;;;1.65;;
56455;SDS011;42354;53.218;6.564;2023-08-01T12:31:28;6.72;;;1.40;;
56455;SDS011;42354;53.218;6.564;2023-08-01T12:33:54;6.47;;;1.67;;
56455;SDS011;42354;53.218;6.564;2023-08-01T12:36:19;5.10;;;1.75;;
56455;SDS011;42354;53.218;6.564;2023-08-01T12:38:45;5.55;;;1.23;;
56455;SDS011;42354;53.218;6.564;2023-08-01T12:41:10;7.72;;;1.65;;
56455;SDS011;42354;53.218;6.564;2023-08-01T12:43:35;6.13;;;1.65;;
56455;SDS011;42354;53.218;6.564;2023-08-01T12:46:01;7.68;;;1.80;;
56455;SDS011;42354;53.218;6.564;2023-08-01T12:48:27;7.03;;;1.83;;
56455;SDS011;42354;53.218;6.564;2023-08-01T12:50:53;11.90;;;1.83;;
56455;SDS011;42354;53.218;6.564;2023-08-01T12:53:19;4.55;;;1.45;;
56455;SDS011;42354;53.218;6.564;2023-08-01T12:55:45;8.23;;;1.70;;
56455;SDS011;42354;53.218;6.564;2023-08-01T12:58:11;5.93;;;1.73;;
56455;SDS011;42354;53.218;6.564;2023-08-01T13:00:38;4.65;;;1.20;;
56455;SDS011;42354;53.218;6.564;2023-08-01T13:03:05;4.97;;;1.58;;
56455;SDS011;42354;53.218;6.564;2023-08-01T13:05:33;5.22;;;1.10;;
56455;SDS011;42354;53.218;6.564;2023-08-01T13:07:59;3.45;;;0.98;;
56455;SDS011;42354;53.218;6.564;2023-08-01T13:10:24;3.30;;;1.00;;
56455;SDS011;42354;53.218;6.564;2023-08-01T13:12:50;8.95;;;1.35;;
56455;SDS011;42354;53.218;6.564;2023-08-01T13:15:15;5.32;;;1.50;;
56455;SDS011;42354;53.218;6.564;2023-08-01T13:17:41;5.80;;;1.15;;
56455;SDS011;42354;53.218;6.564;2023-08-01T13:20:06;4.85;;;1.17;;
56455;SDS011;42354;53.218;6.564;2023-08-01T13:22:32;6.88;;;1.35;;
56455;SDS011;42354;53.218;6.564;2023-08-01T13:24:58;9.20;;;1.40;;
56455;SDS011;42354;53.218;6.564;2023-08-01T13:27:24;2.17;;;0.73;;
56455;SDS011;42354;53.218;6.564;2023-08-01T13:29:49;4.72;;;0.90;;
56455;SDS011;42354;53.218;6.564;2023-08-01T13:32:17;3.38;;;0.85;;
56455;SDS011;42354;53.218;6.564;2023-08-01T13:34:43;6.18;;;0.90;;
56455;SDS011;42354;53.218;6.564;2023-08-01T13:37:08;8.70;;;1.33;;
56455;SDS011;42354;53.218;6.564;2023-08-01T13:39:34;6.68;;;1.20;;
56455;SDS011;42354;53.218;6.564;2023-08-01T13:42:00;5.38;;;1.40;;
56455;SDS011;42354;53.218;6.564;2023-08-01T13:44:25;4.88;;;1.35;;
56455;SDS011;42354;53.218;6.564;2023-08-01T13:46:50;4.53;;;1.15;;
56455;SDS011;42354;53.218;6.564;2023-08-01T13:49:16;6.80;;;1.40;;
56455;SDS011;42354;53.218;6.564;2023-08-01T13:51:41;7.50;;;1.10;;
56455;SDS011;42354;53.218;6.564;2023-08-01T13:54:07;6.20;;;1.45;;
56455;SDS011;42354;53.218;6.564;2023-08-01T13:56:32;3.60;;;1.10;;
56455;SDS011;42354;53.218;6.564;2023-08-01T13:58:57;4.45;;;1.10;;
56455;SDS011;42354;53.218;6.564;2023-08-01T14:01:23;3.83;;;1.10;;
56455;SDS011;42354;53.218;6.564;2023-08-01T14:03:48;4.05;;;1.30;;
56455;SDS011;42354;53.218;6.564;2023-08-01T14:06:14;4.95;;;1.00;;
56455;SDS011;42354;53.218;6.564;2023-08-01T14:08:40;2.97;;;1.08;;
56455;SDS011;42354;53.218;6.564;2023-08-01T14:11:07;5.57;;;1.10;;
56455;SDS011;42354;53.218;6.564;2023-08-01T14:13:34;8.27;;;1.10;;
56455;SDS011;42354;53.218;6.564;2023-08-01T14:16:00;8.05;;;1.20;;
56455;SDS011;42354;53.218;6.564;2023-08-01T14:18:27;8.13;;;1.40;;
56455;SDS011;42354;53.218;6.564;2023-08-01T14:20:53;3.53;;;1.10;;
56455;SDS011;42354;53.218;6.564;2023-08-01T14:23:18;3.13;;;0.98;;
56455;SDS011;42354;53.218;6.564;2023-08-01T14:25:44;4.43;;;1.00;;
56455;SDS011;42354;53.218;6.564;2023-08-01T14:28:09;4.50;;;1.02;;
56455;SDS011;42354;53.218;6.564;2023-08-01T14:30:36;7.80;;;1.27;;
56455;SDS011;42354;53.218;6.564;2023-08-01T14:33:04;10.52;;;1.23;;
56455;SDS011;42354;53.218;6.564;2023-08-01T14:35:31;7.05;;;1.30;;
56455;SDS011;42354;53.218;6.564;2023-08-01T14:37:57;3.90;;;1.13;;
56455;SDS011;42354;53.218;6.564;2023-08-01T14:40:23;4.72;;;0.98;;
56455;SDS011;42354;53.218;6.564;2023-08-01T14:42:49;3.42;;;0.90;;
56455;SDS011;42354;53.218;6.564;2023-08-01T14:45:16;8.35;;;1.20;;
56455;SDS011;42354;53.218;6.564;2023-08-01T14:47:42;7.13;;;1.00;;
56455;SDS011;42354;53.218;6.564;2023-08-01T14:50:08;6.85;;;1.27;;